sensor_id;sensor_type;location;lat;lon;timestamp;temperature;humidity
62007;DHT22;47963;53.008;6.754;2022-07-04T00:01:04;15.10;99.90
62007;DHT22;47963;53.008;6.754;2022-07-04T00:03:30;15.00;99.90
62007;DHT22;47963;53.008;6.754;2022-07-04T00:05:56;15.00;99.90
62007;DHT22;47963;53.008;6.754;2022-07-04T00:08:21;15.00;99.90
62007;DHT22;47963;53.008;6.754;2022-07-04T00:10:47;14.90;99.90
62007;DHT22;47963;53.008;6.754;2022-07-04T00:13:13;14.80;99.90
62007;DHT22;47963;53.008;6.754;2022-07-04T00:15:38;14.80;99.90
62007;DHT22;47963;53.008;6.754;2022-07-04T00:18:04;14.80;99.90
62007;DHT22;47963;53.008;6.754;2022-07-04T00:20:30;14.80;99.90
62007;DHT22;47963;53.008;6.754;2022-07-04T00:22:55;14.70;99.90
62007;DHT22;47963;53.008;6.754;2022-07-04T00:25:21;14.60;99.90
62007;DHT22;47963;53.008;6.754;2022-07-04T00:27:47;14.70;99.90
62007;DHT22;47963;53.008;6.754;2022-07-04T00:30:13;14.60;99.90
62007;DHT22;47963;53.008;6.754;2022-07-04T00:32:38;14.60;99.90
62007;DHT22;47963;53.008;6.754;2022-07-04T00:35:05;14.70;99.90
62007;DHT22;47963;53.008;6.754;2022-07-04T00:37:31;14.70;99.90
62007;DHT22;47963;53.008;6.754;2022-07-04T00:39:57;14.70;99.90
62007;DHT22;47963;53.008;6.754;2022-07-04T00:42:22;14.70;99.90
62007;DHT22;47963;53.008;6.754;2022-07-04T00:44:48;14.70;99.90
62007;DHT22;47963;53.008;6.754;2022-07-04T00:47:16;14.70;99.90
62007;DHT22;47963;53.008;6.754;2022-07-04T00:49:42;14.60;99.90
62007;DHT22;47963;53.008;6.754;2022-07-04T00:52:08;14.60;99.90
62007;DHT22;47963;53.008;6.754;2022-07-04T00:54:34;14.60;99.90
62007;DHT22;47963;53.008;6.754;2022-07-04T00:57:00;14.60;99.90
62007;DHT22;47963;53.008;6.754;2022-07-04T00:59:26;14.50;99.90
62007;DHT22;47963;53.008;6.754;2022-07-04T01:01:52;14.50;99.90
62007;DHT22;47963;53.008;6.754;2022-07-04T01:04:18;14.40;99.90
62007;DHT22;47963;53.008;6.754;2022-07-04T01:06:44;14.40;99.90
62007;DHT22;47963;53.008;6.754;2022-07-04T01:09:10;14.40;99.90
62007;DHT22;47963;53.008;6.754;2022-07-04T01:11:36;14.40;99.90
62007;DHT22;47963;53.008;6.754;2022-07-04T01:14:02;14.30;99.90
62007;DHT22;47963;53.008;6.754;2022-07-04T01:16:28;14.30;99.90
62007;DHT22;47963;53.008;6.754;2022-07-04T01:18:54;14.30;99.90
62007;DHT22;47963;53.008;6.754;2022-07-04T01:21:21;14.40;99.90
62007;DHT22;47963;53.008;6.754;2022-07-04T01:23:47;14.40;99.90
62007;DHT22;47963;53.008;6.754;2022-07-04T01:26:13;14.30;99.90
62007;DHT22;47963;53.008;6.754;2022-07-04T01:28:39;14.30;99.90
62007;DHT22;47963;53.008;6.754;2022-07-04T01:31:05;14.30;99.90
62007;DHT22;47963;53.008;6.754;2022-07-04T01:33:31;14.20;99.90
62007;DHT22;47963;53.008;6.754;2022-07-04T01:35:56;14.20;99.90
62007;DHT22;47963;53.008;6.754;2022-07-04T01:38:22;14.20;99.90
62007;DHT22;47963;53.008;6.754;2022-07-04T01:40:48;14.20;99.90
62007;DHT22;47963;53.008;6.754;2022-07-04T01:43:14;14.30;99.90
62007;DHT22;47963;53.008;6.754;2022-07-04T01:45:39;14.30;99.90
62007;DHT22;47963;53.008;6.754;2022-07-04T01:48:05;14.20;99.90
62007;DHT22;47963;53.008;6.754;2022-07-04T01:50:31;14.20;99.90
62007;DHT22;47963;53.008;6.754;2022-07-04T01:52:57;14.20;99.90
62007;DHT22;47963;53.008;6.754;2022-07-04T01:55:23;14.10;99.90
62007;DHT22;47963;53.008;6.754;2022-07-04T01:57:48;14.10;99.90
62007;DHT22;47963;53.008;6.754;2022-07-04T02:00:14;14.10;99.90
62007;DHT22;47963;53.008;6.754;2022-07-04T02:02:58;13.90;99.90
62007;DHT22;47963;53.008;6.754;2022-07-04T02:05:24;13.90;99.90
62007;DHT22;47963;53.008;6.754;2022-07-04T02:07:50;13.90;99.90
62007;DHT22;47963;53.008;6.754;2022-07-04T02:10:17;13.90;99.90
62007;DHT22;47963;53.008;6.754;2022-07-04T02:12:42;13.90;99.90
62007;DHT22;47963;53.008;6.754;2022-07-04T02:15:28;14.00;99.90
62007;DHT22;47963;53.008;6.754;2022-07-04T02:17:54;14.00;99.90
62007;DHT22;47963;53.008;6.754;2022-07-04T02:20:20;13.90;99.90
62007;DHT22;47963;53.008;6.754;2022-07-04T02:22:45;13.80;99.90
62007;DHT22;47963;53.008;6.754;2022-07-04T02:25:11;13.70;99.90
62007;DHT22;47963;53.008;6.754;2022-07-04T02:27:37;13.70;99.90
62007;DHT22;47963;53.008;6.754;2022-07-04T02:30:04;13.70;99.90
62007;DHT22;47963;53.008;6.754;2022-07-04T02:32:30;13.80;99.90
62007;DHT22;47963;53.008;6.754;2022-07-04T02:34:55;13.90;99.90
62007;DHT22;47963;53.008;6.754;2022-07-04T02:37:22;14.00;99.90
62007;DHT22;47963;53.008;6.754;2022-07-04T02:39:48;13.90;99.90
62007;DHT22;47963;53.008;6.754;2022-07-04T02:42:14;13.90;99.90
62007;DHT22;47963;53.008;6.754;2022-07-04T02:44:39;13.80;99.90
62007;DHT22;47963;53.008;6.754;2022-07-04T02:47:07;13.80;99.90
62007;DHT22;47963;53.008;6.754;2022-07-04T02:49:32;13.80;99.90
62007;DHT22;47963;53.008;6.754;2022-07-04T02:51:58;13.70;99.90
62007;DHT22;47963;53.008;6.754;2022-07-04T02:54:24;13.70;99.90
62007;DHT22;47963;53.008;6.754;2022-07-04T02:56:49;13.70;99.90
62007;DHT22;47963;53.008;6.754;2022-07-04T02:59:15;13.70;99.90
62007;DHT22;47963;53.008;6.754;2022-07-04T03:01:41;13.70;99.90
62007;DHT22;47963;53.008;6.754;2022-07-04T03:04:06;13.60;99.90
62007;DHT22;47963;53.008;6.754;2022-07-04T03:06:32;13.50;99.90
62007;DHT22;47963;53.008;6.754;2022-07-04T03:08:57;13.50;99.90
62007;DHT22;47963;53.008;6.754;2022-07-04T03:11:23;13.40;99.90
62007;DHT22;47963;53.008;6.754;2022-07-04T03:13:49;13.40;99.90
62007;DHT22;47963;53.008;6.754;2022-07-04T03:16:14;13.40;99.90
62007;DHT22;47963;53.008;6.754;2022-07-04T03:18:40;13.40;99.90
62007;DHT22;47963;53.008;6.754;2022-07-04T03:21:06;13.40;99.90
62007;DHT22;47963;53.008;6.754;2022-07-04T03:23:32;13.40;99.90
62007;DHT22;47963;53.008;6.754;2022-07-04T03:25:59;13.50;99.90
62007;DHT22;47963;53.008;6.754;2022-07-04T03:28:25;13.40;99.90
62007;DHT22;47963;53.008;6.754;2022-07-04T03:30:53;13.40;99.90
62007;DHT22;47963;53.008;6.754;2022-07-04T03:33:20;13.40;99.90
62007;DHT22;47963;53.008;6.754;2022-07-04T03:35:45;13.50;99.90
62007;DHT22;47963;53.008;6.754;2022-07-04T03:38:11;13.50;99.90
62007;DHT22;47963;53.008;6.754;2022-07-04T03:40:37;13.50;99.90
62007;DHT22;47963;53.008;6.754;2022-07-04T03:43:04;13.60;99.90
62007;DHT22;47963;53.008;6.754;2022-07-04T03:45:31;13.50;99.90
62007;DHT22;47963;53.008;6.754;2022-07-04T03:47:57;13.50;99.90
62007;DHT22;47963;53.008;6.754;2022-07-04T03:50:23;13.60;99.90
62007;DHT22;47963;53.008;6.754;2022-07-04T03:52:49;13.60;99.90
62007;DHT22;47963;53.008;6.754;2022-07-04T03:55:14;13.50;99.90
62007;DHT22;47963;53.008;6.754;2022-07-04T03:57:40;13.40;99.90
62007;DHT22;47963;53.008;6.754;2022-07-04T04:00:06;13.40;99.90
62007;DHT22;47963;53.008;6.754;2022-07-04T04:02:33;13.40;99.90
62007;DHT22;47963;53.008;6.754;2022-07-04T04:04:59;13.40;99.90
62007;DHT22;47963;53.008;6.754;2022-07-04T04:07:43;13.50;99.90
62007;DHT22;47963;53.008;6.754;2022-07-04T04:10:09;13.60;99.90
62007;DHT22;47963;53.008;6.754;2022-07-04T04:12:35;13.60;99.90
62007;DHT22;47963;53.008;6.754;2022-07-04T04:15:02;13.60;99.90
62007;DHT22;47963;53.008;6.754;2022-07-04T04:17:28;13.70;99.90
62007;DHT22;47963;53.008;6.754;2022-07-04T04:19:54;13.70;99.90
62007;DHT22;47963;53.008;6.754;2022-07-04T04:22:19;13.70;99.90
62007;DHT22;47963;53.008;6.754;2022-07-04T04:24:45;13.80;99.90
62007;DHT22;47963;53.008;6.754;2022-07-04T04:27:11;13.80;99.90
62007;DHT22;47963;53.008;6.754;2022-07-04T04:29:36;13.80;99.90
62007;DHT22;47963;53.008;6.754;2022-07-04T04:32:02;13.90;99.90
62007;DHT22;47963;53.008;6.754;2022-07-04T04:34:28;14.00;99.90
62007;DHT22;47963;53.008;6.754;2022-07-04T04:36:53;14.10;99.90
62007;DHT22;47963;53.008;6.754;2022-07-04T04:39:19;14.10;99.90
62007;DHT22;47963;53.008;6.754;2022-07-04T04:41:45;14.20;99.90
62007;DHT22;47963;53.008;6.754;2022-07-04T04:44:10;14.30;99.90
62007;DHT22;47963;53.008;6.754;2022-07-04T04:46:36;14.40;99.90
62007;DHT22;47963;53.008;6.754;2022-07-04T04:49:01;14.50;99.90
62007;DHT22;47963;53.008;6.754;2022-07-04T04:51:27;14.50;99.90
62007;DHT22;47963;53.008;6.754;2022-07-04T04:53:53;14.50;99.90
62007;DHT22;47963;53.008;6.754;2022-07-04T04:56:20;14.50;99.90
62007;DHT22;47963;53.008;6.754;2022-07-04T04:58:46;14.60;99.90
62007;DHT22;47963;53.008;6.754;2022-07-04T05:01:12;14.60;99.90
62007;DHT22;47963;53.008;6.754;2022-07-04T05:03:38;14.60;99.90
62007;DHT22;47963;53.008;6.754;2022-07-04T05:06:03;14.70;99.90
62007;DHT22;47963;53.008;6.754;2022-07-04T05:08:29;14.80;99.90
62007;DHT22;47963;53.008;6.754;2022-07-04T05:10:55;14.80;99.90
62007;DHT22;47963;53.008;6.754;2022-07-04T05:13:21;14.80;99.90
62007;DHT22;47963;53.008;6.754;2022-07-04T05:15:46;14.80;99.90
62007;DHT22;47963;53.008;6.754;2022-07-04T05:18:13;14.80;99.90
62007;DHT22;47963;53.008;6.754;2022-07-04T05:20:39;14.80;99.90
62007;DHT22;47963;53.008;6.754;2022-07-04T05:23:05;14.90;99.90
62007;DHT22;47963;53.008;6.754;2022-07-04T05:25:32;14.90;99.90
62007;DHT22;47963;53.008;6.754;2022-07-04T05:28:00;14.90;99.90
62007;DHT22;47963;53.008;6.754;2022-07-04T05:30:25;14.90;99.90
62007;DHT22;47963;53.008;6.754;2022-07-04T05:32:51;15.00;99.90
62007;DHT22;47963;53.008;6.754;2022-07-04T05:35:17;15.00;99.90
62007;DHT22;47963;53.008;6.754;2022-07-04T05:37:43;15.00;99.90
62007;DHT22;47963;53.008;6.754;2022-07-04T05:40:12;15.10;99.90
62007;DHT22;47963;53.008;6.754;2022-07-04T05:42:39;15.10;99.90
62007;DHT22;47963;53.008;6.754;2022-07-04T05:45:06;15.10;99.90
62007;DHT22;47963;53.008;6.754;2022-07-04T05:47:38;15.10;99.90
62007;DHT22;47963;53.008;6.754;2022-07-04T05:50:04;15.20;99.90
62007;DHT22;47963;53.008;6.754;2022-07-04T05:52:30;15.20;99.90
62007;DHT22;47963;53.008;6.754;2022-07-04T05:54:56;15.30;99.90
62007;DHT22;47963;53.008;6.754;2022-07-04T05:57:22;15.40;99.90
62007;DHT22;47963;53.008;6.754;2022-07-04T05:59:47;15.40;99.90
62007;DHT22;47963;53.008;6.754;2022-07-04T06:02:13;15.50;99.90
62007;DHT22;47963;53.008;6.754;2022-07-04T06:04:40;15.50;99.90
62007;DHT22;47963;53.008;6.754;2022-07-04T06:07:06;15.60;99.90
62007;DHT22;47963;53.008;6.754;2022-07-04T06:09:32;15.70;99.90
62007;DHT22;47963;53.008;6.754;2022-07-04T06:11:58;15.70;99.90
62007;DHT22;47963;53.008;6.754;2022-07-04T06:14:24;15.70;99.90
62007;DHT22;47963;53.008;6.754;2022-07-04T06:16:49;15.80;99.90
62007;DHT22;47963;53.008;6.754;2022-07-04T06:19:15;15.80;99.90
62007;DHT22;47963;53.008;6.754;2022-07-04T06:21:41;15.90;99.90
62007;DHT22;47963;53.008;6.754;2022-07-04T06:24:06;15.90;99.90
62007;DHT22;47963;53.008;6.754;2022-07-04T06:26:32;15.90;99.90
62007;DHT22;47963;53.008;6.754;2022-07-04T06:28:57;16.00;99.90
62007;DHT22;47963;53.008;6.754;2022-07-04T06:31:23;16.10;99.90
62007;DHT22;47963;53.008;6.754;2022-07-04T06:33:49;16.10;99.90
62007;DHT22;47963;53.008;6.754;2022-07-04T06:36:33;16.00;99.90
62007;DHT22;47963;53.008;6.754;2022-07-04T06:38:59;16.00;99.90
62007;DHT22;47963;53.008;6.754;2022-07-04T06:41:25;16.00;99.90
62007;DHT22;47963;53.008;6.754;2022-07-04T06:43:51;16.20;99.90
62007;DHT22;47963;53.008;6.754;2022-07-04T06:46:17;16.30;99.90
62007;DHT22;47963;53.008;6.754;2022-07-04T06:48:42;16.30;99.90
62007;DHT22;47963;53.008;6.754;2022-07-04T06:51:08;16.40;99.90
62007;DHT22;47963;53.008;6.754;2022-07-04T06:53:34;16.50;99.90
62007;DHT22;47963;53.008;6.754;2022-07-04T06:56:00;16.50;99.90
62007;DHT22;47963;53.008;6.754;2022-07-04T06:58:25;16.50;99.90
62007;DHT22;47963;53.008;6.754;2022-07-04T07:00:51;16.50;99.90
62007;DHT22;47963;53.008;6.754;2022-07-04T07:03:17;16.60;99.90
62007;DHT22;47963;53.008;6.754;2022-07-04T07:05:43;16.60;99.90
62007;DHT22;47963;53.008;6.754;2022-07-04T07:08:08;16.80;99.90
62007;DHT22;47963;53.008;6.754;2022-07-04T07:10:34;16.80;99.90
62007;DHT22;47963;53.008;6.754;2022-07-04T07:13:02;16.80;99.90
62007;DHT22;47963;53.008;6.754;2022-07-04T07:15:28;17.00;99.90
62007;DHT22;47963;53.008;6.754;2022-07-04T07:17:54;17.00;99.90
62007;DHT22;47963;53.008;6.754;2022-07-04T07:20:19;17.10;99.90
62007;DHT22;47963;53.008;6.754;2022-07-04T07:22:45;17.20;99.90
62007;DHT22;47963;53.008;6.754;2022-07-04T07:25:11;17.30;99.90
62007;DHT22;47963;53.008;6.754;2022-07-04T07:27:38;17.50;99.90
62007;DHT22;47963;53.008;6.754;2022-07-04T07:30:04;17.50;99.90
62007;DHT22;47963;53.008;6.754;2022-07-04T07:32:30;17.60;99.90
62007;DHT22;47963;53.008;6.754;2022-07-04T07:34:56;17.60;99.90
62007;DHT22;47963;53.008;6.754;2022-07-04T07:37:22;17.50;99.90
62007;DHT22;47963;53.008;6.754;2022-07-04T07:39:49;17.60;99.90
62007;DHT22;47963;53.008;6.754;2022-07-04T07:42:16;17.60;99.90
62007;DHT22;47963;53.008;6.754;2022-07-04T07:44:42;17.60;99.90
62007;DHT22;47963;53.008;6.754;2022-07-04T07:47:09;17.70;99.90
62007;DHT22;47963;53.008;6.754;2022-07-04T07:49:34;17.70;99.90
62007;DHT22;47963;53.008;6.754;2022-07-04T07:52:00;17.70;99.90
62007;DHT22;47963;53.008;6.754;2022-07-04T07:54:26;17.80;99.90
62007;DHT22;47963;53.008;6.754;2022-07-04T07:56:51;17.80;99.90
62007;DHT22;47963;53.008;6.754;2022-07-04T07:59:17;18.10;99.90
62007;DHT22;47963;53.008;6.754;2022-07-04T08:01:43;18.10;99.90
62007;DHT22;47963;53.008;6.754;2022-07-04T08:04:08;18.10;99.90
62007;DHT22;47963;53.008;6.754;2022-07-04T08:06:52;18.20;99.90
62007;DHT22;47963;53.008;6.754;2022-07-04T08:09:18;18.00;99.90
62007;DHT22;47963;53.008;6.754;2022-07-04T08:11:44;18.10;99.90
62007;DHT22;47963;53.008;6.754;2022-07-04T08:14:09;18.40;99.90
62007;DHT22;47963;53.008;6.754;2022-07-04T08:16:35;18.50;99.90
62007;DHT22;47963;53.008;6.754;2022-07-04T08:19:02;18.40;99.90
62007;DHT22;47963;53.008;6.754;2022-07-04T08:21:28;18.20;99.90
62007;DHT22;47963;53.008;6.754;2022-07-04T08:23:54;18.40;99.90
62007;DHT22;47963;53.008;6.754;2022-07-04T08:26:19;18.60;99.90
62007;DHT22;47963;53.008;6.754;2022-07-04T08:28:45;18.60;99.90
62007;DHT22;47963;53.008;6.754;2022-07-04T08:31:11;18.70;99.90
62007;DHT22;47963;53.008;6.754;2022-07-04T08:33:37;18.70;99.90
62007;DHT22;47963;53.008;6.754;2022-07-04T08:36:03;18.80;99.90
62007;DHT22;47963;53.008;6.754;2022-07-04T08:38:29;18.80;99.90
62007;DHT22;47963;53.008;6.754;2022-07-04T08:40:59;18.70;99.90
62007;DHT22;47963;53.008;6.754;2022-07-04T08:43:25;18.90;99.90
62007;DHT22;47963;53.008;6.754;2022-07-04T08:45:53;18.90;99.90
62007;DHT22;47963;53.008;6.754;2022-07-04T08:48:23;18.90;99.90
62007;DHT22;47963;53.008;6.754;2022-07-04T08:50:51;19.10;99.90
62007;DHT22;47963;53.008;6.754;2022-07-04T08:53:19;19.20;99.90
62007;DHT22;47963;53.008;6.754;2022-07-04T08:55:46;19.30;99.90
62007;DHT22;47963;53.008;6.754;2022-07-04T08:58:38;19.20;99.90
62007;DHT22;47963;53.008;6.754;2022-07-04T09:01:08;18.80;99.90
62007;DHT22;47963;53.008;6.754;2022-07-04T09:03:44;19.00;99.90
62007;DHT22;47963;53.008;6.754;2022-07-04T09:06:10;19.30;99.90
62007;DHT22;47963;53.008;6.754;2022-07-04T09:08:38;19.40;99.90
62007;DHT22;47963;53.008;6.754;2022-07-04T09:11:04;19.50;99.90
62007;DHT22;47963;53.008;6.754;2022-07-04T09:13:31;19.40;99.90
62007;DHT22;47963;53.008;6.754;2022-07-04T09:15:57;19.30;99.90
62007;DHT22;47963;53.008;6.754;2022-07-04T09:20:54;18.80;99.90
62007;DHT22;47963;53.008;6.754;2022-07-04T09:23:25;18.70;99.90
62007;DHT22;47963;53.008;6.754;2022-07-04T09:26:11;18.60;99.90
62007;DHT22;47963;53.008;6.754;2022-07-04T09:28:38;18.50;99.90
62007;DHT22;47963;53.008;6.754;2022-07-04T09:31:16;18.40;99.90
62007;DHT22;47963;53.008;6.754;2022-07-04T09:36:24;18.30;99.90
62007;DHT22;47963;53.008;6.754;2022-07-04T09:41:35;18.70;99.90
62007;DHT22;47963;53.008;6.754;2022-07-04T09:44:14;19.00;99.90
62007;DHT22;47963;53.008;6.754;2022-07-04T09:46:40;19.20;99.90
62007;DHT22;47963;53.008;6.754;2022-07-04T09:49:05;19.50;99.90
62007;DHT22;47963;53.008;6.754;2022-07-04T09:51:45;19.90;99.90
62007;DHT22;47963;53.008;6.754;2022-07-04T09:56:42;19.60;99.90
62007;DHT22;47963;53.008;6.754;2022-07-04T09:59:08;19.40;99.90
62007;DHT22;47963;53.008;6.754;2022-07-04T10:01:34;19.30;99.90
62007;DHT22;47963;53.008;6.754;2022-07-04T10:04:01;19.50;99.90
62007;DHT22;47963;53.008;6.754;2022-07-04T10:06:32;19.80;99.90
62007;DHT22;47963;53.008;6.754;2022-07-04T10:09:09;20.00;99.90
62007;DHT22;47963;53.008;6.754;2022-07-04T10:11:35;20.40;99.90
62007;DHT22;47963;53.008;6.754;2022-07-04T10:14:05;20.40;99.90
62007;DHT22;47963;53.008;6.754;2022-07-04T10:16:31;20.50;99.90
62007;DHT22;47963;53.008;6.754;2022-07-04T10:18:57;20.60;99.90
62007;DHT22;47963;53.008;6.754;2022-07-04T10:21:23;20.60;99.90
62007;DHT22;47963;53.008;6.754;2022-07-04T10:23:52;20.70;99.90
62007;DHT22;47963;53.008;6.754;2022-07-04T10:26:19;20.90;99.90
62007;DHT22;47963;53.008;6.754;2022-07-04T10:28:46;21.00;99.90
62007;DHT22;47963;53.008;6.754;2022-07-04T10:31:15;21.10;99.90
62007;DHT22;47963;53.008;6.754;2022-07-04T10:33:42;21.20;99.90
62007;DHT22;47963;53.008;6.754;2022-07-04T10:36:27;21.30;99.90
62007;DHT22;47963;53.008;6.754;2022-07-04T10:38:55;21.40;99.90
62007;DHT22;47963;53.008;6.754;2022-07-04T10:41:22;21.50;99.90
62007;DHT22;47963;53.008;6.754;2022-07-04T10:46:30;21.60;99.90
62007;DHT22;47963;53.008;6.754;2022-07-04T10:51:51;21.30;99.90
62007;DHT22;47963;53.008;6.754;2022-07-04T10:56:49;21.30;99.90
62007;DHT22;47963;53.008;6.754;2022-07-04T10:59:30;21.30;99.90
62007;DHT22;47963;53.008;6.754;2022-07-04T11:04:50;21.50;99.90
62007;DHT22;47963;53.008;6.754;2022-07-04T11:17:59;21.30;99.90
62007;DHT22;47963;53.008;6.754;2022-07-04T11:20:27;21.40;99.90
62007;DHT22;47963;53.008;6.754;2022-07-04T11:23:06;21.50;99.90
62007;DHT22;47963;53.008;6.754;2022-07-04T11:25:32;21.20;99.90
62007;DHT22;47963;53.008;6.754;2022-07-04T11:27:57;20.70;99.90
62007;DHT22;47963;53.008;6.754;2022-07-04T11:30:23;20.50;99.90
62007;DHT22;47963;53.008;6.754;2022-07-04T11:32:49;20.60;99.90
62007;DHT22;47963;53.008;6.754;2022-07-04T11:35:20;20.80;99.90
62007;DHT22;47963;53.008;6.754;2022-07-04T11:37:56;20.90;99.90
62007;DHT22;47963;53.008;6.754;2022-07-04T11:40:22;20.70;99.90
62007;DHT22;47963;53.008;6.754;2022-07-04T11:43:10;20.90;99.90
62007;DHT22;47963;53.008;6.754;2022-07-04T11:45:55;21.20;99.90
62007;DHT22;47963;53.008;6.754;2022-07-04T11:48:35;21.50;99.90
62007;DHT22;47963;53.008;6.754;2022-07-04T11:51:00;21.50;99.90
62007;DHT22;47963;53.008;6.754;2022-07-04T11:53:26;21.30;98.90
62007;DHT22;47963;53.008;6.754;2022-07-04T11:55:58;21.40;99.30
62007;DHT22;47963;53.008;6.754;2022-07-04T11:58:46;21.70;99.90
62007;DHT22;47963;53.008;6.754;2022-07-04T12:01:12;21.50;99.80
62007;DHT22;47963;53.008;6.754;2022-07-04T12:03:38;21.60;99.90
62007;DHT22;47963;53.008;6.754;2022-07-04T12:06:04;21.40;97.50
62007;DHT22;47963;53.008;6.754;2022-07-04T12:08:31;21.50;96.40
62007;DHT22;47963;53.008;6.754;2022-07-04T12:10:57;21.60;97.00
62007;DHT22;47963;53.008;6.754;2022-07-04T12:13:23;21.30;94.70
62007;DHT22;47963;53.008;6.754;2022-07-04T12:15:51;21.40;96.50
62007;DHT22;47963;53.008;6.754;2022-07-04T12:18:21;21.60;98.60
62007;DHT22;47963;53.008;6.754;2022-07-04T12:20:49;21.80;99.50
62007;DHT22;47963;53.008;6.754;2022-07-04T12:23:15;21.90;98.10
62007;DHT22;47963;53.008;6.754;2022-07-04T12:25:45;21.90;95.00
62007;DHT22;47963;53.008;6.754;2022-07-04T12:28:12;22.20;97.20
62007;DHT22;47963;53.008;6.754;2022-07-04T12:31:00;21.80;94.60
62007;DHT22;47963;53.008;6.754;2022-07-04T12:33:27;21.90;94.70
62007;DHT22;47963;53.008;6.754;2022-07-04T12:36:01;22.00;97.90
62007;DHT22;47963;53.008;6.754;2022-07-04T12:43:19;21.40;97.00
62007;DHT22;47963;53.008;6.754;2022-07-04T12:45:47;21.70;99.90
62007;DHT22;47963;53.008;6.754;2022-07-04T12:48:18;21.70;94.50
62007;DHT22;47963;53.008;6.754;2022-07-04T12:50:45;22.00;96.10
62007;DHT22;47963;53.008;6.754;2022-07-04T12:53:11;22.00;97.30
62007;DHT22;47963;53.008;6.754;2022-07-04T12:55:44;21.60;94.60
62007;DHT22;47963;53.008;6.754;2022-07-04T12:58:10;21.40;92.70
62007;DHT22;47963;53.008;6.754;2022-07-04T13:00:38;21.80;94.50
62007;DHT22;47963;53.008;6.754;2022-07-04T13:03:04;21.50;92.50
62007;DHT22;47963;53.008;6.754;2022-07-04T13:05:30;21.60;95.30
62007;DHT22;47963;53.008;6.754;2022-07-04T13:07:56;22.00;94.70
62007;DHT22;47963;53.008;6.754;2022-07-04T13:10:21;22.20;94.70
62007;DHT22;47963;53.008;6.754;2022-07-04T13:12:50;22.30;92.80
62007;DHT22;47963;53.008;6.754;2022-07-04T13:15:16;22.20;92.40
62007;DHT22;47963;53.008;6.754;2022-07-04T13:17:43;22.30;93.30
62007;DHT22;47963;53.008;6.754;2022-07-04T13:20:09;22.30;89.50
62007;DHT22;47963;53.008;6.754;2022-07-04T13:22:34;22.30;90.20
62007;DHT22;47963;53.008;6.754;2022-07-04T13:25:00;22.20;91.20
62007;DHT22;47963;53.008;6.754;2022-07-04T13:27:29;21.40;86.50
62007;DHT22;47963;53.008;6.754;2022-07-04T13:29:54;21.40;90.90
62007;DHT22;47963;53.008;6.754;2022-07-04T13:32:20;21.50;90.30
62007;DHT22;47963;53.008;6.754;2022-07-04T13:34:46;21.80;88.80
62007;DHT22;47963;53.008;6.754;2022-07-04T13:37:12;21.90;91.60
62007;DHT22;47963;53.008;6.754;2022-07-04T13:39:39;22.00;84.60
62007;DHT22;47963;53.008;6.754;2022-07-04T13:42:05;22.20;87.00
62007;DHT22;47963;53.008;6.754;2022-07-04T13:44:31;22.00;86.10
62007;DHT22;47963;53.008;6.754;2022-07-04T13:46:56;22.10;78.60
62007;DHT22;47963;53.008;6.754;2022-07-04T13:49:24;22.20;79.50
62007;DHT22;47963;53.008;6.754;2022-07-04T13:51:51;22.20;77.10
62007;DHT22;47963;53.008;6.754;2022-07-04T13:54:20;22.30;76.50
62007;DHT22;47963;53.008;6.754;2022-07-04T13:56:45;22.40;74.50
62007;DHT22;47963;53.008;6.754;2022-07-04T13:59:11;22.60;77.60
62007;DHT22;47963;53.008;6.754;2022-07-04T14:01:38;22.60;73.30
62007;DHT22;47963;53.008;6.754;2022-07-04T14:04:05;22.60;72.00
62007;DHT22;47963;53.008;6.754;2022-07-04T14:06:32;22.90;80.70
62007;DHT22;47963;53.008;6.754;2022-07-04T14:08:58;23.20;80.30
62007;DHT22;47963;53.008;6.754;2022-07-04T14:11:23;23.20;76.80
62007;DHT22;47963;53.008;6.754;2022-07-04T14:13:49;23.20;70.40
62007;DHT22;47963;53.008;6.754;2022-07-04T14:16:15;23.70;72.30
62007;DHT22;47963;53.008;6.754;2022-07-04T14:18:41;23.60;68.30
62007;DHT22;47963;53.008;6.754;2022-07-04T14:21:07;23.80;72.60
62007;DHT22;47963;53.008;6.754;2022-07-04T14:23:32;23.70;73.60
62007;DHT22;47963;53.008;6.754;2022-07-04T14:26:16;23.80;70.20
62007;DHT22;47963;53.008;6.754;2022-07-04T14:28:42;23.30;66.80
62007;DHT22;47963;53.008;6.754;2022-07-04T14:31:12;22.90;67.50
62007;DHT22;47963;53.008;6.754;2022-07-04T14:33:38;23.10;69.80
62007;DHT22;47963;53.008;6.754;2022-07-04T14:36:08;23.40;68.00
62007;DHT22;47963;53.008;6.754;2022-07-04T14:38:34;23.30;67.50
62007;DHT22;47963;53.008;6.754;2022-07-04T14:41:00;22.90;67.50
62007;DHT22;47963;53.008;6.754;2022-07-04T14:43:39;23.20;67.90
62007;DHT22;47963;53.008;6.754;2022-07-04T14:46:05;23.40;69.10
62007;DHT22;47963;53.008;6.754;2022-07-04T14:48:31;23.40;70.00
62007;DHT22;47963;53.008;6.754;2022-07-04T14:50:57;23.50;73.40
62007;DHT22;47963;53.008;6.754;2022-07-04T14:53:23;23.20;71.60
62007;DHT22;47963;53.008;6.754;2022-07-04T14:55:50;22.90;74.90
62007;DHT22;47963;53.008;6.754;2022-07-04T14:58:15;22.30;69.80
62007;DHT22;47963;53.008;6.754;2022-07-04T15:00:41;23.00;73.30
62007;DHT22;47963;53.008;6.754;2022-07-04T15:03:07;22.50;73.40
62007;DHT22;47963;53.008;6.754;2022-07-04T15:05:32;22.30;69.30
62007;DHT22;47963;53.008;6.754;2022-07-04T15:07:58;22.10;72.60
62007;DHT22;47963;53.008;6.754;2022-07-04T15:10:24;22.20;73.30
62007;DHT22;47963;53.008;6.754;2022-07-04T15:12:49;22.10;75.80
62007;DHT22;47963;53.008;6.754;2022-07-04T15:15:15;21.80;77.40
62007;DHT22;47963;53.008;6.754;2022-07-04T15:17:41;21.40;77.80
62007;DHT22;47963;53.008;6.754;2022-07-04T15:20:07;21.50;77.10
62007;DHT22;47963;53.008;6.754;2022-07-04T15:22:51;21.40;79.40
62007;DHT22;47963;53.008;6.754;2022-07-04T15:25:36;21.20;80.40
62007;DHT22;47963;53.008;6.754;2022-07-04T15:28:01;21.20;79.60
62007;DHT22;47963;53.008;6.754;2022-07-04T15:30:27;21.10;81.40
62007;DHT22;47963;53.008;6.754;2022-07-04T15:32:53;21.10;79.00
62007;DHT22;47963;53.008;6.754;2022-07-04T15:35:18;21.00;82.00
62007;DHT22;47963;53.008;6.754;2022-07-04T15:37:44;20.60;87.80
62007;DHT22;47963;53.008;6.754;2022-07-04T15:40:10;20.60;89.30
62007;DHT22;47963;53.008;6.754;2022-07-04T15:42:35;20.70;90.40
62007;DHT22;47963;53.008;6.754;2022-07-04T15:45:01;20.70;89.50
62007;DHT22;47963;53.008;6.754;2022-07-04T15:47:27;20.80;90.10
62007;DHT22;47963;53.008;6.754;2022-07-04T15:49:52;20.80;92.10
62007;DHT22;47963;53.008;6.754;2022-07-04T15:52:18;20.80;92.90
62007;DHT22;47963;53.008;6.754;2022-07-04T15:54:43;20.80;91.90
62007;DHT22;47963;53.008;6.754;2022-07-04T15:57:09;21.00;92.20
62007;DHT22;47963;53.008;6.754;2022-07-04T15:59:35;20.70;92.70
62007;DHT22;47963;53.008;6.754;2022-07-04T16:02:00;20.70;94.10
62007;DHT22;47963;53.008;6.754;2022-07-04T16:04:26;20.60;92.90
62007;DHT22;47963;53.008;6.754;2022-07-04T16:06:52;20.30;91.40